createdAt,value
2018-09-17T00:00:52.035Z,100206.66
2018-09-17T00:03:22.301Z,100202.77
2018-09-17T00:05:52.634Z,100207.04
2018-09-17T00:08:22.902Z,100205.45
2018-09-17T00:10:53.557Z,100207.56
2018-09-17T00:13:24.159Z,100211.16
2018-09-17T00:15:56.238Z,100203.91
2018-09-17T00:18:26.528Z,100202.38
2018-09-17T00:20:56.857Z,100204.28
2018-09-17T00:23:26.549Z,100204.72
2018-09-17T00:25:56.830Z,100198.67
2018-09-17T00:28:27.025Z,100204.72
2018-09-17T00:30:58.897Z,100193.63
2018-09-17T00:33:29.517Z,100205.33
2018-09-17T00:35:58.906Z,100203.66
2018-09-17T00:38:29.469Z,100205.77
2018-09-17T00:41:00.775Z,100204.08
2018-09-17T00:43:32.418Z,100205.31
2018-09-17T00:46:02.804Z,100198.96
2018-09-17T00:48:33.105Z,100198.27
2018-09-17T00:51:03.748Z,100201.29
2018-09-17T00:53:34.278Z,100200.25
2018-09-17T00:56:04.153Z,100207.13
2018-09-17T00:58:34.448Z,100195.22
2018-09-17T01:01:04.774Z,100200.88
2018-09-17T01:03:34.559Z,100202.09
2018-09-17T01:06:05.025Z,100203.15
2018-09-17T01:08:35.809Z,100199.11
2018-09-17T01:11:06.114Z,100196.09
2018-09-17T01:16:09.564Z,100198.30
2018-09-17T01:18:40.642Z,100195.57
2018-09-17T01:21:11.169Z,100198.77
2018-09-17T01:24:13.558Z,100204.49
2018-09-17T01:26:43.593Z,100205.21
2018-09-17T01:29:13.200Z,100193.59
2018-09-17T01:31:42.541Z,100206.09
2018-09-17T01:34:12.801Z,100123.42
2018-09-17T01:36:42.993Z,100217.64
2018-09-17T01:39:12.970Z,100221.66
2018-09-17T01:41:42.934Z,100216.89
2018-09-17T01:44:13.264Z,100222.20
2018-09-17T01:46:44.792Z,100232.64
2018-09-17T01:49:14.198Z,100224.56
2018-09-17T01:51:43.546Z,100215.24
2018-09-17T01:54:13.793Z,100225.60
2018-09-17T01:56:43.161Z,100147.81
2018-09-17T01:59:12.912Z,100225.42
2018-09-17T02:01:43.138Z,100218.57
2018-09-17T02:04:13.131Z,100235.48
2018-09-17T02:06:44.693Z,100222.30
2018-09-17T02:09:14.117Z,100221.05
2018-09-17T02:11:44.870Z,100204.05
2018-09-17T02:14:14.701Z,100215.87
2018-09-17T02:16:48.564Z,100219.92
2018-09-17T02:19:17.992Z,100207.26
2018-09-17T02:21:47.778Z,100221.46
2018-09-17T02:24:17.305Z,100229.09
2018-09-17T02:26:46.609Z,100230.05
2018-09-17T02:29:16.202Z,100230.91
2018-09-17T02:31:47.061Z,100226.44
2018-09-17T02:34:16.526Z,100228.77
2018-09-17T02:36:47.126Z,100232.63
2018-09-17T02:39:16.457Z,100230.43
2018-09-17T02:41:45.910Z,100227.94
2018-09-17T02:44:16.642Z,100229.17
2018-09-17T02:46:46.205Z,100229.37
2018-09-17T02:49:15.616Z,100239.00
2018-09-17T02:51:45.810Z,100234.53
2018-09-17T02:54:15.334Z,100236.09
2018-09-17T02:56:45.694Z,100239.41
2018-09-17T02:59:15.234Z,100241.39
2018-09-17T03:01:44.557Z,100246.47
2018-09-17T03:04:13.857Z,100245.95
2018-09-17T03:06:45.045Z,100252.61
2018-09-17T03:09:14.945Z,100249.38
2018-09-17T03:11:44.286Z,100246.56
2018-09-17T03:14:15.515Z,100247.06
2018-09-17T03:16:55.618Z,100223.36
2018-09-17T03:19:25.038Z,100210.70
2018-09-17T03:21:54.388Z,100242.99
2018-09-17T03:24:23.759Z,100238.49
2018-09-17T03:26:53.255Z,100237.14
2018-09-17T03:29:22.633Z,100238.62
2018-09-17T03:31:52.033Z,100233.23
2018-09-17T03:34:22.333Z,100230.73
2018-09-17T03:36:51.711Z,100226.49
2018-09-17T03:39:22.861Z,100242.60
2018-09-17T03:41:52.616Z,100245.94
2018-09-17T03:44:21.946Z,100250.75
2018-09-17T03:46:51.383Z,100234.75
2018-09-17T03:49:22.723Z,100151.86
2018-09-17T03:51:52.835Z,100143.38
2018-09-17T03:54:23.395Z,100235.33
2018-09-17T03:56:52.729Z,100236.28
2018-09-17T03:59:22.129Z,100235.72
2018-09-17T04:01:53.370Z,100238.00
2018-09-17T04:04:28.869Z,100236.74
2018-09-17T04:07:06.134Z,100239.38
2018-09-17T04:09:41.331Z,100237.41
2018-09-17T04:12:17.352Z,100241.67
2018-09-17T04:14:47.600Z,100249.25
2018-09-17T04:17:18.184Z,100218.56
2018-09-17T04:19:47.548Z,100257.23
2018-09-17T04:22:18.696Z,100258.86
2018-09-17T04:24:48.518Z,100254.31
2018-09-17T04:27:18.634Z,100258.61
2018-09-17T04:29:47.942Z,100261.13
2018-09-17T04:32:24.914Z,100262.03
2018-09-17T04:35:00.840Z,100257.59
2018-09-17T04:37:32.796Z,100270.01
2018-09-17T04:40:05.685Z,100270.44
2018-09-17T04:42:38.032Z,100263.59
2018-09-17T04:45:08.410Z,100265.71
2018-09-17T04:47:37.872Z,100265.17
2018-09-17T04:50:07.733Z,100248.16
2018-09-17T04:52:50.596Z,100269.72
2018-09-17T04:55:29.305Z,100266.63
2018-09-17T04:57:58.962Z,100274.42
2018-09-17T05:00:28.506Z,100277.44
2018-09-17T05:02:58.785Z,100274.50
2018-09-17T05:05:31.151Z,100218.80
2018-09-17T05:08:00.910Z,100267.54
2018-09-17T05:10:31.277Z,100218.13
2018-09-17T05:13:00.655Z,100273.66
2018-09-17T05:15:30.564Z,100279.42
2018-09-17T05:17:59.890Z,100274.70
2018-09-17T05:20:29.391Z,100277.69
2018-09-17T05:22:59.023Z,100273.36
2018-09-17T05:27:58.120Z,100274.20
2018-09-17T05:30:27.541Z,100277.99
2018-09-17T05:32:58.264Z,100287.97
2018-09-17T05:35:27.917Z,100282.17
2018-09-17T05:37:57.695Z,100290.59
2018-09-17T05:40:27.442Z,100260.02
2018-09-17T05:42:56.862Z,100296.02
2018-09-17T05:45:26.653Z,100295.16
2018-09-17T05:47:57.190Z,100295.47
2018-09-17T05:50:27.624Z,100300.14
2018-09-17T05:52:57.080Z,100301.39
2018-09-17T05:55:26.408Z,100301.05
2018-09-17T05:57:55.689Z,100291.95
2018-09-17T06:00:26.488Z,100304.99
2018-09-17T06:02:55.953Z,100300.87
2018-09-17T06:05:25.438Z,100294.72
2018-09-17T06:07:56.229Z,100312.76
2018-09-17T06:10:25.661Z,100304.20
2018-09-17T06:12:55.364Z,100303.12
2018-09-17T06:15:26.221Z,100309.44
2018-09-17T06:17:56.164Z,100231.19
2018-09-17T06:20:25.853Z,100316.36
2018-09-17T06:22:55.266Z,100320.22
2018-09-17T06:25:26.176Z,100324.45
2018-09-17T06:27:56.359Z,100330.34
2018-09-17T06:33:03.404Z,100326.06
2018-09-17T06:35:32.905Z,100321.13
2018-09-17T06:38:02.305Z,100322.34
2018-09-17T06:40:32.789Z,100324.98
2018-09-17T06:43:03.417Z,100301.22
2018-09-17T06:45:33.457Z,100313.79
2018-09-17T06:48:05.633Z,100327.06
2018-09-17T06:50:35.047Z,100330.48
2018-09-17T06:53:04.548Z,100336.16
2018-09-17T06:55:35.197Z,100339.88
2018-09-17T06:58:04.819Z,100288.58
2018-09-17T07:00:35.221Z,100325.82
2018-09-17T07:03:04.984Z,100322.63
2018-09-17T07:05:35.838Z,100320.55
2018-09-17T07:08:05.280Z,100310.11
2018-09-17T07:10:35.864Z,100317.20
2018-09-17T07:13:08.087Z,100311.16
2018-09-17T07:15:37.557Z,100310.64
2018-09-17T07:18:07.334Z,100311.47
2018-09-17T07:20:36.909Z,100308.93
2018-09-17T07:23:06.711Z,100317.81
2018-09-17T07:25:36.589Z,100325.25
2018-09-17T07:28:08.316Z,100319.20
2018-09-17T07:30:39.248Z,100330.92
2018-09-17T07:33:09.197Z,100330.41
2018-09-17T07:35:40.807Z,100332.54
2018-09-17T07:38:12.041Z,100325.58
2018-09-17T07:40:41.456Z,100330.28
2018-09-17T07:43:10.872Z,100326.06
2018-09-17T07:45:41.663Z,100331.56
2018-09-17T07:48:11.594Z,100324.43
2018-09-17T07:50:41.019Z,100328.41
2018-09-17T07:53:10.639Z,100326.27
2018-09-17T07:55:40.343Z,100321.35
2018-09-17T07:58:09.817Z,100325.53
2018-09-17T08:00:39.339Z,100319.74
2018-09-17T08:03:08.787Z,100321.22
2018-09-17T08:05:39.176Z,100320.09
2018-09-17T08:08:08.853Z,100309.05
2018-09-17T08:10:38.407Z,100319.06
2018-09-17T08:13:08.825Z,100319.94
2018-09-17T08:15:38.332Z,100320.33
2018-09-17T08:18:08.735Z,100316.78
2018-09-17T08:20:38.709Z,100319.91
2018-09-17T08:23:11.363Z,100319.89
2018-09-17T08:25:42.845Z,100318.87
2018-09-17T08:28:12.945Z,100315.42
2018-09-17T08:30:46.694Z,100310.86
2018-09-17T08:33:19.824Z,100316.64
2018-09-17T08:35:51.411Z,100244.17
2018-09-17T08:38:20.929Z,100321.17
2018-09-17T08:40:52.358Z,100316.76
2018-09-17T08:43:22.352Z,100317.12
2018-09-17T08:45:51.676Z,100310.34
2018-09-17T08:48:22.558Z,100319.49
2018-09-17T08:50:52.649Z,100326.92
2018-09-17T08:53:24.235Z,100330.78
2018-09-17T08:55:59.286Z,100338.19
2018-09-17T08:58:34.256Z,100260.48
2018-09-17T09:01:09.678Z,100315.40
2018-09-17T09:06:36.070Z,100311.95
2018-09-17T09:09:15.111Z,100320.95
2018-09-17T09:12:04.452Z,100321.09
2018-09-17T09:14:39.824Z,100312.78
2018-09-17T09:17:12.037Z,100291.23
2018-09-17T09:19:46.624Z,100313.25
2018-09-17T09:22:23.700Z,100307.75
2018-09-17T09:25:10.642Z,100294.92
2018-09-17T09:27:43.327Z,100297.38
2018-09-17T09:30:15.821Z,100285.95
2018-09-17T09:32:46.454Z,100297.74
2018-09-17T09:35:17.245Z,100291.59
2018-09-17T09:37:50.061Z,100290.56
2018-09-17T09:40:21.573Z,100285.61
2018-09-17T09:42:52.325Z,100286.86
2018-09-17T09:45:31.438Z,100293.33
2018-09-17T09:48:03.242Z,100283.88
2018-09-17T09:50:33.624Z,100285.72
2018-09-17T09:53:04.319Z,100283.05
2018-09-17T09:55:41.357Z,100262.10
2018-09-17T09:58:12.316Z,100271.81
2018-09-17T10:00:51.225Z,100275.79
2018-09-17T10:03:27.229Z,100269.52
2018-09-17T10:06:00.385Z,100269.00
2018-09-17T10:08:32.395Z,100216.87
2018-09-17T10:11:07.097Z,100270.94
2018-09-17T10:13:42.336Z,100275.14
2018-09-17T10:16:18.321Z,100267.84
2018-09-17T10:18:52.766Z,100267.69
2018-09-17T10:21:23.548Z,100269.34
2018-09-17T10:23:53.814Z,100265.17
2018-09-17T10:26:26.644Z,100260.16
2018-09-17T10:28:57.473Z,100257.75
2018-09-17T10:31:27.877Z,100252.86
2018-09-17T10:34:02.544Z,100255.52
2018-09-17T10:36:33.662Z,100256.41
2018-09-17T10:39:05.883Z,100250.48
2018-09-17T10:41:35.591Z,100247.22
2018-09-17T10:44:05.891Z,100236.55
2018-09-17T10:46:39.482Z,100245.22
2018-09-17T10:49:09.352Z,100234.66
2018-09-17T10:51:40.073Z,100238.62
2018-09-17T10:54:10.256Z,100232.71
2018-09-17T10:56:41.260Z,100236.59
2018-09-17T10:59:10.625Z,100223.91
2018-09-17T11:01:40.680Z,100219.14
2018-09-17T11:04:12.194Z,100183.92
2018-09-17T11:06:44.686Z,100210.67
2018-09-17T11:09:14.189Z,100212.29
2018-09-17T11:11:50.350Z,100217.06
2018-09-17T11:14:21.196Z,100213.92
2018-09-17T11:16:50.689Z,100206.75
2018-09-17T11:19:21.659Z,100206.58
2018-09-17T11:21:52.521Z,100197.17
2018-09-17T11:24:23.759Z,100192.50
2018-09-17T11:26:55.217Z,100202.31
2018-09-17T11:29:25.180Z,100175.91
2018-09-17T11:31:59.476Z,100190.52
2018-09-17T11:34:30.380Z,100133.56
2018-09-17T11:37:01.745Z,100186.04
2018-09-17T11:39:34.282Z,100179.78
2018-09-17T11:42:05.871Z,100192.42
2018-09-17T11:44:36.441Z,100189.77
2018-09-17T11:47:06.893Z,100191.66
2018-09-17T11:49:38.305Z,100185.06
2018-09-17T11:52:09.353Z,100172.98
2018-09-17T11:54:43.687Z,100178.92
2018-09-17T11:57:14.071Z,100183.58
2018-09-17T11:59:47.905Z,100178.15
2018-09-17T12:02:23.290Z,100175.08
2018-09-17T12:04:57.297Z,100166.30
2018-09-17T12:07:40.563Z,100168.70
2018-09-17T12:10:11.898Z,100161.62
2018-09-17T12:12:43.628Z,100171.41
2018-09-17T12:15:15.641Z,100163.47
2018-09-17T12:17:45.993Z,100162.83
2018-09-17T12:20:16.835Z,100155.83
2018-09-17T12:22:48.909Z,100149.66
2018-09-17T12:25:21.514Z,100153.83
2018-09-17T12:27:51.905Z,100148.23
2018-09-17T12:30:24.311Z,100136.88
2018-09-17T12:32:54.651Z,100134.53
2018-09-17T12:41:30.644Z,100126.14
2018-09-17T12:44:03.142Z,100130.78
2018-09-17T12:46:35.185Z,100127.05
2018-09-17T12:49:05.358Z,100121.47
2018-09-17T12:51:38.992Z,100116.08
2018-09-17T12:54:09.453Z,100118.39
2018-09-17T12:56:40.998Z,100112.83
2018-09-17T12:59:11.267Z,100121.95
2018-09-17T13:01:41.909Z,100090.45
2018-09-17T13:04:13.345Z,100100.96
2018-09-17T13:06:44.217Z,100106.27
2018-09-17T13:09:16.681Z,100104.74
2018-09-17T13:11:49.625Z,100104.72
2018-09-17T13:14:19.968Z,100096.94
2018-09-17T13:16:50.288Z,100093.23
2018-09-17T13:19:21.108Z,100095.11
2018-09-17T13:21:52.911Z,100097.39
2018-09-17T13:24:23.220Z,100088.23
2018-09-17T13:26:53.547Z,100095.27
2018-09-17T13:29:24.775Z,100077.92
2018-09-17T13:31:57.588Z,100086.76
2018-09-17T13:34:29.000Z,100085.52
2018-09-17T13:36:59.339Z,100076.91
2018-09-17T13:39:29.630Z,100068.86
2018-09-17T13:42:01.426Z,100070.16
2018-09-17T13:44:32.948Z,100069.27
2018-09-17T13:47:05.454Z,100066.20
2018-09-17T13:49:35.708Z,100061.13
2018-09-17T13:52:06.047Z,100058.71
2018-09-17T13:54:36.947Z,100059.22
2018-09-17T13:57:08.135Z,100050.11
2018-09-17T13:59:39.443Z,100037.76
2018-09-17T14:02:09.880Z,100049.52
2018-09-17T14:04:41.741Z,100037.43
2018-09-17T14:07:12.177Z,100039.50
2018-09-17T14:09:43.071Z,100035.48
2018-09-17T14:12:13.375Z,100039.12
2018-09-17T14:14:45.437Z,100037.78
2018-09-17T14:17:17.233Z,100029.77
2018-09-17T14:19:48.297Z,100035.78
2018-09-17T14:22:19.263Z,100023.80
2018-09-17T14:24:51.357Z,100025.52
2018-09-17T14:27:22.458Z,100026.01
2018-09-17T14:29:53.622Z,100030.36
2018-09-17T14:32:32.296Z,100025.38
2018-09-17T14:35:15.077Z,100015.70
2018-09-17T14:40:56.849Z,100008.41
2018-09-17T14:43:43.112Z,100006.66
2018-09-17T14:46:17.489Z,99999.55
2018-09-17T14:48:54.142Z,99998.30
2018-09-17T14:51:26.381Z,99993.58
2018-09-17T14:54:02.631Z,99992.13
2018-09-17T14:56:37.482Z,99983.98
2018-09-17T14:59:09.337Z,99976.79
2018-09-17T15:01:43.193Z,99984.75
2018-09-17T15:04:17.479Z,99970.16
2018-09-17T15:06:50.854Z,99984.31
2018-09-17T15:09:21.290Z,99979.31
2018-09-17T15:11:52.903Z,99980.59
2018-09-17T15:14:23.550Z,99973.48
2018-09-17T15:17:01.034Z,99972.80
2018-09-17T15:19:36.726Z,99973.05
2018-09-17T15:22:08.889Z,99972.99
2018-09-17T15:24:40.374Z,99966.51
2018-09-17T15:27:11.654Z,99964.28
2018-09-17T15:29:44.201Z,99965.84
2018-09-17T15:32:15.598Z,99961.27
2018-09-17T15:34:47.905Z,99955.60
2018-09-17T15:37:20.711Z,99964.63
2018-09-17T15:39:51.438Z,99960.66
2018-09-17T15:42:21.887Z,99953.44
2018-09-17T15:44:52.892Z,99953.16
2018-09-17T15:47:25.050Z,99946.98
2018-09-17T15:49:59.099Z,99942.60
2018-09-17T15:52:31.619Z,99949.48
2018-09-17T15:55:04.948Z,99940.30
2018-09-17T15:57:35.693Z,99941.54
2018-09-17T16:00:06.277Z,99945.25
2018-09-17T16:02:37.453Z,99946.62
2018-09-17T16:05:09.423Z,99944.06
2018-09-17T16:07:41.506Z,99942.18
2018-09-17T16:10:16.614Z,99942.18
2018-09-17T16:12:46.900Z,99936.34
2018-09-17T16:15:19.034Z,99934.89
2018-09-17T16:17:49.425Z,99932.81
2018-09-17T16:20:20.690Z,99932.66
2018-09-17T16:22:50.913Z,99930.19
2018-09-17T16:25:22.379Z,99852.11
2018-09-17T16:27:54.161Z,99929.62
2018-09-17T16:30:25.872Z,99928.19
2018-09-17T16:32:56.625Z,99929.29
2018-09-17T16:35:27.168Z,99927.09
2018-09-17T16:37:59.578Z,99934.66
2018-09-17T16:40:31.927Z,99933.83
2018-09-17T16:43:03.868Z,99931.15
2018-09-17T16:45:35.032Z,99887.22
2018-09-17T16:48:05.343Z,99927.61
2018-09-17T16:50:37.245Z,99927.41
2018-09-17T16:53:09.661Z,99926.88
2018-09-17T16:55:40.457Z,99920.87
2018-09-17T16:58:17.013Z,99931.30
2018-09-17T17:00:47.870Z,99924.86
2018-09-17T17:03:20.672Z,99926.33
2018-09-17T17:05:51.941Z,99928.35
2018-09-17T17:08:24.430Z,99848.88
2018-09-17T17:10:56.524Z,99924.15
2018-09-17T17:13:32.578Z,99918.19
2018-09-17T17:16:03.490Z,99911.97
2018-09-17T17:18:35.463Z,99916.17
2018-09-17T17:21:07.748Z,99898.95
2018-09-17T17:23:42.403Z,99907.69
2018-09-17T17:26:13.487Z,99911.78
2018-09-17T17:28:45.828Z,99909.83
2018-09-17T17:31:16.133Z,99901.28
2018-09-17T17:33:47.638Z,99905.84
2018-09-17T17:36:18.790Z,99904.41
2018-09-17T17:38:49.073Z,99905.64
2018-09-17T17:41:20.582Z,99892.30
2018-09-17T17:43:51.778Z,99905.90
2018-09-17T17:46:22.060Z,99912.69
2018-09-17T17:48:52.661Z,99912.69
2018-09-17T17:51:27.093Z,99913.91
2018-09-17T17:53:59.554Z,99903.86
2018-09-17T17:56:29.013Z,99911.06
2018-09-17T17:59:01.003Z,99917.19
2018-09-17T18:01:33.295Z,99909.73
2018-09-17T18:04:05.802Z,99881.41
2018-09-17T18:06:37.855Z,99909.37
2018-09-17T18:09:12.045Z,99910.63
2018-09-17T18:11:45.801Z,99910.12
2018-09-17T18:14:15.979Z,99909.66
2018-09-17T18:16:51.361Z,99902.02
2018-09-17T18:19:21.490Z,99897.89
2018-09-17T18:21:53.045Z,99901.76
2018-09-17T18:24:22.389Z,99891.06
2018-09-17T18:26:55.254Z,99905.88
2018-09-17T18:29:24.822Z,99902.03
2018-09-17T18:31:56.220Z,99901.69
2018-09-17T18:34:26.873Z,99908.53
2018-09-17T18:36:59.279Z,99903.34
2018-09-17T18:39:29.808Z,99904.14
2018-09-17T18:42:00.310Z,99868.84
2018-09-17T18:44:30.263Z,99895.94
2018-09-17T18:47:02.348Z,99902.20
2018-09-17T18:49:39.644Z,99901.36
2018-09-17T18:52:15.334Z,99845.14
2018-09-17T18:54:45.650Z,99836.67
2018-09-17T18:57:19.069Z,99851.41
2018-09-17T18:59:49.566Z,99913.55
2018-09-17T19:02:21.339Z,99924.48
2018-09-17T19:04:50.761Z,99912.45
2018-09-17T19:07:22.973Z,99913.56
2018-09-17T19:09:54.423Z,99910.78
2018-09-17T19:12:26.278Z,99918.73
2018-09-17T19:15:02.222Z,99832.64
2018-09-17T19:17:37.262Z,99911.31
2018-09-17T19:20:08.538Z,99915.15
2018-09-17T19:22:45.032Z,99912.66
2018-09-17T19:25:15.841Z,99911.80
2018-09-17T19:27:51.844Z,99912.86
2018-09-17T19:30:26.486Z,99913.70
2018-09-17T19:33:01.244Z,99914.00
2018-09-17T19:35:35.557Z,99908.80
2018-09-17T19:38:09.952Z,99913.39
2018-09-17T19:40:44.162Z,99907.27
2018-09-17T19:43:30.831Z,99903.69
2018-09-17T19:46:11.264Z,99907.93
2018-09-17T19:48:44.380Z,99909.03
2018-09-17T19:51:19.396Z,99907.37
2018-09-17T19:53:49.934Z,99906.30
2018-09-17T19:56:20.055Z,99905.44
2018-09-17T19:58:55.237Z,99907.79
2018-09-17T20:01:27.256Z,99907.20
2018-09-17T20:04:02.221Z,99901.95
2018-09-17T20:06:34.793Z,99903.36
2018-09-17T20:09:07.838Z,99900.56
2018-09-17T20:11:39.466Z,99900.52
2018-09-17T20:14:12.558Z,99815.30
2018-09-17T20:16:43.955Z,99902.07
2018-09-17T20:19:13.879Z,99895.98
2018-09-17T20:21:44.417Z,99897.32
2018-09-17T20:24:17.609Z,99892.78
2018-09-17T20:26:50.562Z,99890.52
2018-09-17T20:29:21.065Z,99891.34
2018-09-17T20:31:53.871Z,99888.06
2018-09-17T20:34:26.907Z,99895.13
2018-09-17T20:36:57.547Z,99891.14
2018-09-17T20:39:28.105Z,99889.42
2018-09-17T20:41:58.616Z,99895.18
2018-09-17T20:44:29.222Z,99892.33
2018-09-17T20:49:32.560Z,99882.65
2018-09-17T20:52:02.603Z,99887.39
2018-09-17T20:54:33.528Z,99886.28
2018-09-17T20:57:03.850Z,99882.17
2018-09-17T20:59:34.422Z,99878.05
2018-09-17T21:04:24.573Z,99885.33
2018-09-17T21:06:56.291Z,99892.50
2018-09-17T21:09:27.552Z,99887.27
2018-09-17T21:11:57.253Z,99888.34
2018-09-17T21:14:27.391Z,99799.36
2018-09-17T21:17:00.185Z,99882.53
2018-09-17T21:19:30.651Z,99881.59
2018-09-17T21:22:01.028Z,99881.17
2018-09-17T21:24:32.204Z,99880.84
2018-09-17T21:27:02.364Z,99876.80
2018-09-17T21:29:32.558Z,99883.64
2018-09-17T21:32:01.901Z,99883.64
2018-09-17T21:34:31.353Z,99874.67
2018-09-17T21:37:01.479Z,99875.68
2018-09-17T21:39:30.973Z,99870.55
2018-09-17T21:42:01.606Z,99866.95
2018-09-17T21:44:33.502Z,99871.92
2018-09-17T21:47:03.742Z,99863.42
2018-09-17T21:49:33.236Z,99868.98
2018-09-17T21:52:14.337Z,99865.73
2018-09-17T21:54:47.457Z,99865.73
2018-09-17T21:57:22.261Z,99866.68
2018-09-17T21:59:51.646Z,99866.79
2018-09-17T22:02:21.388Z,99866.52
2018-09-17T22:04:51.020Z,99863.01
2018-09-17T22:07:20.427Z,99869.05
2018-09-17T22:09:53.430Z,99865.59
2018-09-17T22:12:22.729Z,99874.59
2018-09-17T22:14:52.157Z,99863.41
2018-09-17T22:17:21.589Z,99857.27
2018-09-17T22:19:50.984Z,99862.11
2018-09-17T22:22:21.242Z,99855.14
2018-09-17T22:24:51.598Z,99868.92
2018-09-17T22:27:23.698Z,99864.31
2018-09-17T22:29:53.097Z,99861.52
2018-09-17T22:32:23.261Z,99868.51
2018-09-17T22:34:53.510Z,99857.90
2018-09-17T22:37:23.736Z,99851.70
2018-09-17T22:39:53.084Z,99853.14
2018-09-17T22:42:22.539Z,99807.84
2018-09-17T22:44:53.871Z,99852.91
2018-09-17T22:47:23.318Z,99855.22
2018-09-17T22:49:52.757Z,99864.20
2018-09-17T22:52:22.200Z,99858.58
2018-09-17T22:54:52.042Z,99858.77
2018-09-17T22:57:21.540Z,99850.95
2018-09-17T22:59:50.944Z,99855.86
2018-09-17T23:02:20.673Z,99853.97
2018-09-17T23:04:50.024Z,99854.13
2018-09-17T23:07:20.226Z,99785.28
2018-09-17T23:09:51.347Z,99853.70
2018-09-17T23:12:20.814Z,99853.86
2018-09-17T23:14:50.350Z,99851.47
2018-09-17T23:17:22.588Z,99837.89
2018-09-17T23:19:52.000Z,99848.27
2018-09-17T23:22:22.030Z,99850.20
2018-09-17T23:24:53.684Z,99833.81
2018-09-17T23:27:23.142Z,99852.42
2018-09-17T23:29:53.200Z,99849.74
2018-09-17T23:32:22.890Z,99840.87
2018-09-17T23:34:52.240Z,99849.02
2018-09-17T23:37:22.477Z,99849.89
2018-09-17T23:39:52.201Z,99848.83
2018-09-17T23:42:21.695Z,99841.41
2018-09-17T23:44:51.157Z,99838.16
2018-09-17T23:47:21.942Z,99837.77
2018-09-17T23:49:52.480Z,99835.13
2018-09-17T23:52:23.153Z,99834.37
2018-09-17T23:54:53.098Z,99837.09
2018-09-17T23:57:22.602Z,99830.72
2018-09-17T23:59:51.956Z,99831.17
